sensor_id;sensor_type;location;lat;lon;timestamp;P1;durP1;ratioP1;P2;durP2;ratioP2
17251;SDS011;8742;51.716;8.790;2023-03-01T00:02:10;21.97;;;8.33;;
17251;SDS011;8742;51.716;8.790;2023-03-01T00:04:38;16.33;;;7.50;;
17251;SDS011;8742;51.716;8.790;2023-03-01T00:07:05;16.00;;;7.50;;
17251;SDS011;8742;51.716;8.790;2023-03-01T00:09:32;14.97;;;8.00;;
17251;SDS011;8742;51.716;8.790;2023-03-01T00:11:59;18.27;;;8.53;;
17251;SDS011;8742;51.716;8.790;2023-03-01T00:14:25;21.53;;;8.37;;
17251;SDS011;8742;51.716;8.790;2023-03-01T00:16:52;15.87;;;7.57;;
17251;SDS011;8742;51.716;8.790;2023-03-01T00:19:19;16.70;;;7.83;;
17251;SDS011;8742;51.716;8.790;2023-03-01T00:21:49;17.23;;;7.13;;
17251;SDS011;8742;51.716;8.790;2023-03-01T00:24:15;13.80;;;7.27;;
17251;SDS011;8742;51.716;8.790;2023-03-01T00:26:42;14.53;;;6.93;;
17251;SDS011;8742;51.716;8.790;2023-03-01T00:29:09;14.67;;;6.83;;
17251;SDS011;8742;51.716;8.790;2023-03-01T00:31:36;12.17;;;7.00;;
17251;SDS011;8742;51.716;8.790;2023-03-01T00:34:03;20.20;;;7.00;;
17251;SDS011;8742;51.716;8.790;2023-03-01T00:36:33;14.03;;;6.63;;
17251;SDS011;8742;51.716;8.790;2023-03-01T00:39:03;14.80;;;7.33;;
17251;SDS011;8742;51.716;8.790;2023-03-01T00:41:30;11.77;;;6.43;;
17251;SDS011;8742;51.716;8.790;2023-03-01T00:43:59;16.60;;;7.33;;
17251;SDS011;8742;51.716;8.790;2023-03-01T00:46:26;20.33;;;7.30;;
17251;SDS011;8742;51.716;8.790;2023-03-01T00:48:55;12.43;;;6.83;;
17251;SDS011;8742;51.716;8.790;2023-03-01T00:51:23;13.70;;;6.57;;
17251;SDS011;8742;51.716;8.790;2023-03-01T00:53:51;13.80;;;7.77;;
17251;SDS011;8742;51.716;8.790;2023-03-01T00:56:20;14.00;;;6.57;;
17251;SDS011;8742;51.716;8.790;2023-03-01T00:58:47;13.87;;;6.90;;
17251;SDS011;8742;51.716;8.790;2023-03-01T01:01:14;12.00;;;6.60;;
17251;SDS011;8742;51.716;8.790;2023-03-01T01:03:44;12.80;;;6.40;;
17251;SDS011;8742;51.716;8.790;2023-03-01T01:06:16;13.37;;;6.80;;
17251;SDS011;8742;51.716;8.790;2023-03-01T01:08:43;15.20;;;7.10;;
17251;SDS011;8742;51.716;8.790;2023-03-01T01:11:10;14.07;;;6.73;;
17251;SDS011;8742;51.716;8.790;2023-03-01T01:13:39;14.77;;;6.50;;
17251;SDS011;8742;51.716;8.790;2023-03-01T01:16:07;11.87;;;6.60;;
17251;SDS011;8742;51.716;8.790;2023-03-01T01:18:33;13.67;;;6.80;;
17251;SDS011;8742;51.716;8.790;2023-03-01T01:21:05;13.20;;;6.30;;
17251;SDS011;8742;51.716;8.790;2023-03-01T01:23:33;17.70;;;7.20;;
17251;SDS011;8742;51.716;8.790;2023-03-01T01:26:03;17.03;;;6.20;;
17251;SDS011;8742;51.716;8.790;2023-03-01T01:28:32;11.80;;;6.33;;
17251;SDS011;8742;51.716;8.790;2023-03-01T01:31:00;17.73;;;6.97;;
17251;SDS011;8742;51.716;8.790;2023-03-01T01:33:27;13.60;;;6.97;;
17251;SDS011;8742;51.716;8.790;2023-03-01T01:35:54;11.17;;;5.90;;
17251;SDS011;8742;51.716;8.790;2023-03-01T01:38:21;13.50;;;6.23;;
17251;SDS011;8742;51.716;8.790;2023-03-01T01:40:48;13.17;;;5.90;;
17251;SDS011;8742;51.716;8.790;2023-03-01T01:43:20;14.33;;;6.53;;
17251;SDS011;8742;51.716;8.790;2023-03-01T01:45:48;17.17;;;6.63;;
17251;SDS011;8742;51.716;8.790;2023-03-01T01:48:18;12.50;;;6.57;;
17251;SDS011;8742;51.716;8.790;2023-03-01T01:50:49;12.93;;;6.60;;
17251;SDS011;8742;51.716;8.790;2023-03-01T01:53:21;14.47;;;6.47;;
17251;SDS011;8742;51.716;8.790;2023-03-01T01:55:51;12.53;;;5.93;;
17251;SDS011;8742;51.716;8.790;2023-03-01T01:58:22;14.27;;;5.70;;
17251;SDS011;8742;51.716;8.790;2023-03-01T02:00:52;15.07;;;5.93;;
17251;SDS011;8742;51.716;8.790;2023-03-01T02:03:22;13.03;;;5.97;;
17251;SDS011;8742;51.716;8.790;2023-03-01T02:05:55;14.23;;;5.93;;
17251;SDS011;8742;51.716;8.790;2023-03-01T02:08:25;10.23;;;5.50;;
17251;SDS011;8742;51.716;8.790;2023-03-01T02:10:55;13.20;;;6.17;;
17251;SDS011;8742;51.716;8.790;2023-03-01T02:13:24;10.90;;;6.03;;
17251;SDS011;8742;51.716;8.790;2023-03-01T02:15:51;11.00;;;6.03;;
17251;SDS011;8742;51.716;8.790;2023-03-01T02:18:18;11.47;;;5.73;;
17251;SDS011;8742;51.716;8.790;2023-03-01T02:20:52;8.57;;;5.23;;
17251;SDS011;8742;51.716;8.790;2023-03-01T02:23:28;11.50;;;5.93;;
17251;SDS011;8742;51.716;8.790;2023-03-01T02:25:57;11.67;;;5.67;;
17251;SDS011;8742;51.716;8.790;2023-03-01T02:28:32;14.53;;;6.23;;
17251;SDS011;8742;51.716;8.790;2023-03-01T02:31:01;14.80;;;5.83;;
17251;SDS011;8742;51.716;8.790;2023-03-01T02:33:46;9.20;;;5.47;;
17251;SDS011;8742;51.716;8.790;2023-03-01T02:36:15;12.27;;;6.17;;
17251;SDS011;8742;51.716;8.790;2023-03-01T02:38:50;12.40;;;6.17;;
17251;SDS011;8742;51.716;8.790;2023-03-01T02:41:19;13.30;;;6.20;;
17251;SDS011;8742;51.716;8.790;2023-03-01T02:43:49;14.83;;;5.80;;
17251;SDS011;8742;51.716;8.790;2023-03-01T02:46:16;11.57;;;5.67;;
17251;SDS011;8742;51.716;8.790;2023-03-01T02:48:45;14.00;;;6.07;;
17251;SDS011;8742;51.716;8.790;2023-03-01T02:51:22;15.37;;;5.70;;
17251;SDS011;8742;51.716;8.790;2023-03-01T02:54:00;12.23;;;5.87;;
17251;SDS011;8742;51.716;8.790;2023-03-01T02:56:36;12.33;;;5.83;;
17251;SDS011;8742;51.716;8.790;2023-03-01T02:59:04;12.47;;;6.03;;
17251;SDS011;8742;51.716;8.790;2023-03-01T03:01:32;12.37;;;6.17;;
17251;SDS011;8742;51.716;8.790;2023-03-01T03:04:03;15.93;;;6.53;;
17251;SDS011;8742;51.716;8.790;2023-03-01T03:06:30;12.97;;;5.80;;
17251;SDS011;8742;51.716;8.790;2023-03-01T03:08:57;9.70;;;5.13;;
17251;SDS011;8742;51.716;8.790;2023-03-01T03:11:24;11.10;;;5.30;;
17251;SDS011;8742;51.716;8.790;2023-03-01T03:13:51;12.33;;;6.13;;
17251;SDS011;8742;51.716;8.790;2023-03-01T03:16:20;11.43;;;5.87;;
17251;SDS011;8742;51.716;8.790;2023-03-01T03:18:47;8.77;;;5.40;;
17251;SDS011;8742;51.716;8.790;2023-03-01T03:21:15;11.60;;;5.90;;
17251;SDS011;8742;51.716;8.790;2023-03-01T03:23:42;10.07;;;5.83;;
17251;SDS011;8742;51.716;8.790;2023-03-01T03:26:09;12.10;;;5.20;;
17251;SDS011;8742;51.716;8.790;2023-03-01T03:28:38;11.43;;;5.87;;
17251;SDS011;8742;51.716;8.790;2023-03-01T03:31:06;11.47;;;5.63;;
17251;SDS011;8742;51.716;8.790;2023-03-01T03:33:35;12.27;;;6.10;;
17251;SDS011;8742;51.716;8.790;2023-03-01T03:36:02;11.43;;;5.60;;
17251;SDS011;8742;51.716;8.790;2023-03-01T03:38:29;13.00;;;6.07;;
17251;SDS011;8742;51.716;8.790;2023-03-01T03:40:59;17.80;;;6.13;;
17251;SDS011;8742;51.716;8.790;2023-03-01T03:43:28;11.53;;;5.80;;
17251;SDS011;8742;51.716;8.790;2023-03-01T03:45:56;14.43;;;5.80;;
17251;SDS011;8742;51.716;8.790;2023-03-01T03:48:23;9.57;;;5.63;;
17251;SDS011;8742;51.716;8.790;2023-03-01T03:50:53;12.37;;;6.17;;
17251;SDS011;8742;51.716;8.790;2023-03-01T03:53:21;13.07;;;5.97;;
17251;SDS011;8742;51.716;8.790;2023-03-01T03:55:50;11.63;;;5.83;;
17251;SDS011;8742;51.716;8.790;2023-03-01T03:58:17;13.57;;;5.97;;
17251;SDS011;8742;51.716;8.790;2023-03-01T04:00:46;10.87;;;5.93;;
17251;SDS011;8742;51.716;8.790;2023-03-01T04:03:14;10.93;;;5.33;;
17251;SDS011;8742;51.716;8.790;2023-03-01T04:05:43;12.00;;;5.97;;
17251;SDS011;8742;51.716;8.790;2023-03-01T04:08:12;12.33;;;6.00;;
17251;SDS011;8742;51.716;8.790;2023-03-01T04:10:40;12.00;;;6.27;;
17251;SDS011;8742;51.716;8.790;2023-03-01T04:13:09;11.87;;;6.00;;
17251;SDS011;8742;51.716;8.790;2023-03-01T04:15:37;17.47;;;6.80;;
17251;SDS011;8742;51.716;8.790;2023-03-01T04:18:05;11.13;;;5.93;;
17251;SDS011;8742;51.716;8.790;2023-03-01T04:20:33;12.93;;;6.13;;
17251;SDS011;8742;51.716;8.790;2023-03-01T04:23:05;12.07;;;6.37;;
17251;SDS011;8742;51.716;8.790;2023-03-01T04:25:45;13.23;;;5.93;;
17251;SDS011;8742;51.716;8.790;2023-03-01T04:28:14;12.67;;;5.70;;
17251;SDS011;8742;51.716;8.790;2023-03-01T04:30:41;16.17;;;6.20;;
17251;SDS011;8742;51.716;8.790;2023-03-01T04:33:09;13.17;;;6.07;;
17251;SDS011;8742;51.716;8.790;2023-03-01T04:35:36;16.87;;;7.13;;
17251;SDS011;8742;51.716;8.790;2023-03-01T04:38:05;14.43;;;6.43;;
17251;SDS011;8742;51.716;8.790;2023-03-01T04:40:32;13.37;;;6.60;;
17251;SDS011;8742;51.716;8.790;2023-03-01T04:43:01;10.73;;;6.07;;
17251;SDS011;8742;51.716;8.790;2023-03-01T04:45:28;20.97;;;7.13;;
17251;SDS011;8742;51.716;8.790;2023-03-01T04:47:55;15.77;;;7.40;;
17251;SDS011;8742;51.716;8.790;2023-03-01T04:50:23;15.70;;;7.23;;
17251;SDS011;8742;51.716;8.790;2023-03-01T04:52:50;17.97;;;6.73;;
17251;SDS011;8742;51.716;8.790;2023-03-01T04:55:18;17.27;;;7.37;;
17251;SDS011;8742;51.716;8.790;2023-03-01T04:57:45;13.40;;;6.90;;
17251;SDS011;8742;51.716;8.790;2023-03-01T05:00:13;14.43;;;6.30;;
17251;SDS011;8742;51.716;8.790;2023-03-01T05:02:47;14.70;;;6.80;;
17251;SDS011;8742;51.716;8.790;2023-03-01T05:05:18;16.10;;;6.93;;
17251;SDS011;8742;51.716;8.790;2023-03-01T05:07:46;17.03;;;7.73;;
17251;SDS011;8742;51.716;8.790;2023-03-01T05:10:13;20.10;;;8.13;;
17251;SDS011;8742;51.716;8.790;2023-03-01T05:12:40;18.27;;;7.80;;
17251;SDS011;8742;51.716;8.790;2023-03-01T05:15:07;19.63;;;8.03;;
17251;SDS011;8742;51.716;8.790;2023-03-01T05:17:36;13.37;;;7.00;;
17251;SDS011;8742;51.716;8.790;2023-03-01T05:20:03;13.00;;;6.87;;
17251;SDS011;8742;51.716;8.790;2023-03-01T05:22:33;13.10;;;6.53;;
17251;SDS011;8742;51.716;8.790;2023-03-01T05:25:00;16.60;;;7.77;;
17251;SDS011;8742;51.716;8.790;2023-03-01T05:27:27;15.33;;;7.23;;
17251;SDS011;8742;51.716;8.790;2023-03-01T05:29:54;17.40;;;7.23;;
17251;SDS011;8742;51.716;8.790;2023-03-01T05:32:21;16.90;;;7.50;;
17251;SDS011;8742;51.716;8.790;2023-03-01T05:34:49;15.50;;;7.27;;
17251;SDS011;8742;51.716;8.790;2023-03-01T05:37:17;26.67;;;8.10;;
17251;SDS011;8742;51.716;8.790;2023-03-01T05:39:44;16.57;;;6.60;;
17251;SDS011;8742;51.716;8.790;2023-03-01T05:42:11;14.97;;;7.63;;
17251;SDS011;8742;51.716;8.790;2023-03-01T05:44:38;19.07;;;7.10;;
17251;SDS011;8742;51.716;8.790;2023-03-01T05:47:05;13.77;;;7.37;;
17251;SDS011;8742;51.716;8.790;2023-03-01T05:49:32;11.93;;;6.77;;
17251;SDS011;8742;51.716;8.790;2023-03-01T05:52:01;15.80;;;7.30;;
17251;SDS011;8742;51.716;8.790;2023-03-01T05:54:27;18.37;;;7.57;;
17251;SDS011;8742;51.716;8.790;2023-03-01T05:56:54;20.40;;;7.80;;
17251;SDS011;8742;51.716;8.790;2023-03-01T05:59:21;15.97;;;7.83;;
17251;SDS011;8742;51.716;8.790;2023-03-01T06:01:48;17.30;;;8.17;;
17251;SDS011;8742;51.716;8.790;2023-03-01T06:04:15;16.40;;;8.00;;
17251;SDS011;8742;51.716;8.790;2023-03-01T06:06:41;19.70;;;7.90;;
17251;SDS011;8742;51.716;8.790;2023-03-01T06:09:10;14.87;;;6.67;;
17251;SDS011;8742;51.716;8.790;2023-03-01T06:11:36;17.30;;;7.30;;
17251;SDS011;8742;51.716;8.790;2023-03-01T06:14:03;16.90;;;7.83;;
17251;SDS011;8742;51.716;8.790;2023-03-01T06:16:31;18.10;;;6.93;;
17251;SDS011;8742;51.716;8.790;2023-03-01T06:18:58;16.53;;;6.90;;
17251;SDS011;8742;51.716;8.790;2023-03-01T06:21:25;15.33;;;7.03;;
17251;SDS011;8742;51.716;8.790;2023-03-01T06:23:52;15.13;;;7.17;;
17251;SDS011;8742;51.716;8.790;2023-03-01T06:26:20;20.53;;;7.97;;
17251;SDS011;8742;51.716;8.790;2023-03-01T06:28:46;17.33;;;8.37;;
17251;SDS011;8742;51.716;8.790;2023-03-01T06:31:13;16.93;;;7.53;;
17251;SDS011;8742;51.716;8.790;2023-03-01T06:33:40;15.53;;;7.30;;
17251;SDS011;8742;51.716;8.790;2023-03-01T06:36:09;17.73;;;7.43;;
17251;SDS011;8742;51.716;8.790;2023-03-01T06:38:36;14.47;;;6.80;;
17251;SDS011;8742;51.716;8.790;2023-03-01T06:41:03;16.63;;;7.57;;
17251;SDS011;8742;51.716;8.790;2023-03-01T06:43:31;13.87;;;7.23;;
17251;SDS011;8742;51.716;8.790;2023-03-01T06:45:58;21.70;;;9.10;;
17251;SDS011;8742;51.716;8.790;2023-03-01T06:48:25;16.90;;;7.87;;
17251;SDS011;8742;51.716;8.790;2023-03-01T06:50:52;15.33;;;7.43;;
17251;SDS011;8742;51.716;8.790;2023-03-01T06:53:19;18.23;;;8.23;;
17251;SDS011;8742;51.716;8.790;2023-03-01T06:55:46;18.80;;;7.60;;
17251;SDS011;8742;51.716;8.790;2023-03-01T06:58:13;14.43;;;6.73;;
17251;SDS011;8742;51.716;8.790;2023-03-01T07:00:41;18.97;;;7.60;;
17251;SDS011;8742;51.716;8.790;2023-03-01T07:03:08;14.10;;;7.30;;
17251;SDS011;8742;51.716;8.790;2023-03-01T07:05:35;16.50;;;7.87;;
17251;SDS011;8742;51.716;8.790;2023-03-01T07:08:02;14.30;;;6.83;;
17251;SDS011;8742;51.716;8.790;2023-03-01T07:10:29;17.17;;;7.43;;
17251;SDS011;8742;51.716;8.790;2023-03-01T07:12:56;15.77;;;7.33;;
17251;SDS011;8742;51.716;8.790;2023-03-01T07:15:23;16.83;;;6.93;;
17251;SDS011;8742;51.716;8.790;2023-03-01T07:17:52;14.73;;;6.97;;
17251;SDS011;8742;51.716;8.790;2023-03-01T07:20:19;16.47;;;7.40;;
17251;SDS011;8742;51.716;8.790;2023-03-01T07:22:49;15.67;;;7.27;;
17251;SDS011;8742;51.716;8.790;2023-03-01T07:25:16;17.23;;;7.40;;
17251;SDS011;8742;51.716;8.790;2023-03-01T07:27:43;13.97;;;6.60;;
17251;SDS011;8742;51.716;8.790;2023-03-01T07:30:10;15.03;;;7.20;;
17251;SDS011;8742;51.716;8.790;2023-03-01T07:32:37;15.80;;;7.10;;
17251;SDS011;8742;51.716;8.790;2023-03-01T07:35:06;15.33;;;6.83;;
17251;SDS011;8742;51.716;8.790;2023-03-01T07:37:33;12.50;;;6.47;;
17251;SDS011;8742;51.716;8.790;2023-03-01T07:40:00;12.00;;;6.43;;
17251;SDS011;8742;51.716;8.790;2023-03-01T07:42:27;14.53;;;6.60;;
17251;SDS011;8742;51.716;8.790;2023-03-01T07:44:54;17.97;;;7.77;;
17251;SDS011;8742;51.716;8.790;2023-03-01T07:47:21;21.83;;;8.80;;
17251;SDS011;8742;51.716;8.790;2023-03-01T07:49:47;20.00;;;8.17;;
17251;SDS011;8742;51.716;8.790;2023-03-01T07:52:16;18.03;;;8.03;;
17251;SDS011;8742;51.716;8.790;2023-03-01T07:54:43;17.20;;;7.20;;
17251;SDS011;8742;51.716;8.790;2023-03-01T07:57:10;15.23;;;6.40;;
17251;SDS011;8742;51.716;8.790;2023-03-01T07:59:37;13.53;;;6.30;;
17251;SDS011;8742;51.716;8.790;2023-03-01T08:02:04;17.30;;;6.97;;
17251;SDS011;8742;51.716;8.790;2023-03-01T08:04:31;14.97;;;6.43;;
17251;SDS011;8742;51.716;8.790;2023-03-01T08:06:58;15.90;;;7.30;;
17251;SDS011;8742;51.716;8.790;2023-03-01T08:09:26;12.13;;;6.37;;
17251;SDS011;8742;51.716;8.790;2023-03-01T08:11:53;15.87;;;7.00;;
17251;SDS011;8742;51.716;8.790;2023-03-01T08:14:20;16.50;;;6.37;;
17251;SDS011;8742;51.716;8.790;2023-03-01T08:16:51;17.40;;;7.10;;
17251;SDS011;8742;51.716;8.790;2023-03-01T08:19:19;13.23;;;6.13;;
17251;SDS011;8742;51.716;8.790;2023-03-01T08:21:46;13.17;;;6.77;;
17251;SDS011;8742;51.716;8.790;2023-03-01T08:24:12;12.73;;;6.40;;
17251;SDS011;8742;51.716;8.790;2023-03-01T08:26:40;18.37;;;7.30;;
17251;SDS011;8742;51.716;8.790;2023-03-01T08:29:07;17.03;;;6.60;;
17251;SDS011;8742;51.716;8.790;2023-03-01T08:31:35;16.23;;;6.67;;
17251;SDS011;8742;51.716;8.790;2023-03-01T08:34:04;13.13;;;6.30;;
17251;SDS011;8742;51.716;8.790;2023-03-01T08:36:34;9.13;;;5.87;;
17251;SDS011;8742;51.716;8.790;2023-03-01T08:39:13;10.00;;;5.27;;
17251;SDS011;8742;51.716;8.790;2023-03-01T08:41:43;12.70;;;5.90;;
17251;SDS011;8742;51.716;8.790;2023-03-01T08:44:10;11.57;;;5.60;;
17251;SDS011;8742;51.716;8.790;2023-03-01T08:46:47;15.27;;;5.63;;
17251;SDS011;8742;51.716;8.790;2023-03-01T08:49:15;10.63;;;5.17;;
17251;SDS011;8742;51.716;8.790;2023-03-01T08:51:44;14.17;;;6.00;;
17251;SDS011;8742;51.716;8.790;2023-03-01T08:54:12;10.40;;;5.50;;
17251;SDS011;8742;51.716;8.790;2023-03-01T08:56:49;8.80;;;5.00;;
17251;SDS011;8742;51.716;8.790;2023-03-01T08:59:37;9.40;;;5.40;;
17251;SDS011;8742;51.716;8.790;2023-03-01T09:02:05;9.80;;;5.07;;
17251;SDS011;8742;51.716;8.790;2023-03-01T09:04:36;7.43;;;5.03;;
17251;SDS011;8742;51.716;8.790;2023-03-01T09:07:03;11.63;;;5.43;;
17251;SDS011;8742;51.716;8.790;2023-03-01T09:09:29;9.03;;;5.13;;
17251;SDS011;8742;51.716;8.790;2023-03-01T09:11:58;8.57;;;4.77;;
17251;SDS011;8742;51.716;8.790;2023-03-01T09:14:24;9.03;;;4.83;;
17251;SDS011;8742;51.716;8.790;2023-03-01T09:16:51;7.90;;;5.03;;
17251;SDS011;8742;51.716;8.790;2023-03-01T09:19:18;9.80;;;4.63;;
17251;SDS011;8742;51.716;8.790;2023-03-01T09:21:45;9.60;;;5.33;;
17251;SDS011;8742;51.716;8.790;2023-03-01T09:24:17;9.97;;;4.57;;
17251;SDS011;8742;51.716;8.790;2023-03-01T09:26:45;8.83;;;4.90;;
17251;SDS011;8742;51.716;8.790;2023-03-01T09:29:13;8.30;;;4.93;;
17251;SDS011;8742;51.716;8.790;2023-03-01T09:31:41;6.37;;;4.40;;
17251;SDS011;8742;51.716;8.790;2023-03-01T09:34:08;8.07;;;4.70;;
17251;SDS011;8742;51.716;8.790;2023-03-01T09:36:35;7.20;;;5.07;;
17251;SDS011;8742;51.716;8.790;2023-03-01T09:39:03;7.57;;;4.90;;
17251;SDS011;8742;51.716;8.790;2023-03-01T09:44:26;7.87;;;4.23;;
17251;SDS011;8742;51.716;8.790;2023-03-01T09:46:56;10.87;;;4.80;;
17251;SDS011;8742;51.716;8.790;2023-03-01T09:49:25;8.63;;;4.03;;
17251;SDS011;8742;51.716;8.790;2023-03-01T09:51:56;8.03;;;4.63;;
17251;SDS011;8742;51.716;8.790;2023-03-01T09:54:25;9.03;;;4.53;;
17251;SDS011;8742;51.716;8.790;2023-03-01T09:56:56;7.40;;;4.47;;
17251;SDS011;8742;51.716;8.790;2023-03-01T09:59:36;7.90;;;4.63;;
17251;SDS011;8742;51.716;8.790;2023-03-01T10:02:19;6.30;;;4.10;;
17251;SDS011;8742;51.716;8.790;2023-03-01T10:04:53;8.07;;;4.60;;
17251;SDS011;8742;51.716;8.790;2023-03-01T10:07:27;13.03;;;4.30;;
17251;SDS011;8742;51.716;8.790;2023-03-01T10:10:00;10.80;;;4.33;;
17251;SDS011;8742;51.716;8.790;2023-03-01T10:12:31;7.77;;;4.60;;
17251;SDS011;8742;51.716;8.790;2023-03-01T10:15:04;8.60;;;4.47;;
17251;SDS011;8742;51.716;8.790;2023-03-01T10:17:37;6.27;;;4.13;;
17251;SDS011;8742;51.716;8.790;2023-03-01T10:20:18;8.37;;;4.93;;
17251;SDS011;8742;51.716;8.790;2023-03-01T10:22:47;9.23;;;4.70;;
17251;SDS011;8742;51.716;8.790;2023-03-01T10:25:17;8.67;;;4.83;;
17251;SDS011;8742;51.716;8.790;2023-03-01T10:27:52;16.13;;;7.43;;
17251;SDS011;8742;51.716;8.790;2023-03-01T10:30:22;8.33;;;4.87;;
17251;SDS011;8742;51.716;8.790;2023-03-01T10:32:56;10.03;;;4.77;;
17251;SDS011;8742;51.716;8.790;2023-03-01T10:35:25;11.07;;;5.10;;
17251;SDS011;8742;51.716;8.790;2023-03-01T10:37:57;5.67;;;4.07;;
17251;SDS011;8742;51.716;8.790;2023-03-01T10:40:28;7.33;;;4.77;;
17251;SDS011;8742;51.716;8.790;2023-03-01T10:42:57;12.33;;;4.53;;
17251;SDS011;8742;51.716;8.790;2023-03-01T10:45:33;7.37;;;4.50;;
17251;SDS011;8742;51.716;8.790;2023-03-01T10:48:05;11.80;;;5.07;;
17251;SDS011;8742;51.716;8.790;2023-03-01T10:50:37;6.80;;;4.90;;
17251;SDS011;8742;51.716;8.790;2023-03-01T10:53:09;8.17;;;4.63;;
17251;SDS011;8742;51.716;8.790;2023-03-01T10:56:01;6.77;;;4.67;;
17251;SDS011;8742;51.716;8.790;2023-03-01T10:58:30;9.23;;;4.77;;
17251;SDS011;8742;51.716;8.790;2023-03-01T11:01:00;15.87;;;5.00;;
17251;SDS011;8742;51.716;8.790;2023-03-01T11:03:32;12.77;;;4.80;;
17251;SDS011;8742;51.716;8.790;2023-03-01T11:06:05;10.03;;;4.53;;
17251;SDS011;8742;51.716;8.790;2023-03-01T11:08:46;9.60;;;4.80;;
17251;SDS011;8742;51.716;8.790;2023-03-01T11:11:16;8.80;;;4.70;;
17251;SDS011;8742;51.716;8.790;2023-03-01T11:13:56;8.13;;;4.60;;
17251;SDS011;8742;51.716;8.790;2023-03-01T11:16:28;7.80;;;5.10;;
17251;SDS011;8742;51.716;8.790;2023-03-01T11:18:58;9.10;;;5.30;;
17251;SDS011;8742;51.716;8.790;2023-03-01T11:21:27;6.30;;;4.70;;
17251;SDS011;8742;51.716;8.790;2023-03-01T11:23:57;9.80;;;4.53;;
17251;SDS011;8742;51.716;8.790;2023-03-01T11:26:26;11.07;;;5.57;;
17251;SDS011;8742;51.716;8.790;2023-03-01T11:28:55;8.33;;;4.90;;
17251;SDS011;8742;51.716;8.790;2023-03-01T11:31:24;9.20;;;5.23;;
17251;SDS011;8742;51.716;8.790;2023-03-01T11:33:54;9.03;;;5.60;;
17251;SDS011;8742;51.716;8.790;2023-03-01T11:36:28;7.13;;;4.70;;
17251;SDS011;8742;51.716;8.790;2023-03-01T11:39:02;6.37;;;5.00;;
17251;SDS011;8742;51.716;8.790;2023-03-01T11:41:38;7.77;;;5.43;;
17251;SDS011;8742;51.716;8.790;2023-03-01T11:44:14;8.63;;;5.47;;
17251;SDS011;8742;51.716;8.790;2023-03-01T11:46:48;7.43;;;5.30;;
17251;SDS011;8742;51.716;8.790;2023-03-01T11:49:47;7.17;;;4.83;;
17251;SDS011;8742;51.716;8.790;2023-03-01T11:52:54;8.63;;;5.20;;
17251;SDS011;8742;51.716;8.790;2023-03-01T11:55:44;12.53;;;5.17;;
17251;SDS011;8742;51.716;8.790;2023-03-01T11:58:38;6.93;;;4.70;;
17251;SDS011;8742;51.716;8.790;2023-03-01T12:01:24;8.43;;;5.00;;
17251;SDS011;8742;51.716;8.790;2023-03-01T12:04:10;7.53;;;5.03;;
17251;SDS011;8742;51.716;8.790;2023-03-01T12:06:57;9.10;;;5.10;;
17251;SDS011;8742;51.716;8.790;2023-03-01T12:12:29;7.90;;;4.40;;
17251;SDS011;8742;51.716;8.790;2023-03-01T12:18:13;7.53;;;4.87;;
17251;SDS011;8742;51.716;8.790;2023-03-01T12:21:14;7.80;;;4.80;;
17251;SDS011;8742;51.716;8.790;2023-03-01T12:23:56;7.13;;;5.20;;
17251;SDS011;8742;51.716;8.790;2023-03-01T12:26:51;7.23;;;5.07;;
17251;SDS011;8742;51.716;8.790;2023-03-01T12:29:32;5.13;;;4.57;;
17251;SDS011;8742;51.716;8.790;2023-03-01T12:32:13;5.80;;;4.83;;
17251;SDS011;8742;51.716;8.790;2023-03-01T12:34:57;6.13;;;4.97;;
17251;SDS011;8742;51.716;8.790;2023-03-01T12:37:54;8.43;;;4.90;;
17251;SDS011;8742;51.716;8.790;2023-03-01T12:40:36;11.67;;;5.00;;
17251;SDS011;8742;51.716;8.790;2023-03-01T12:43:22;7.03;;;4.73;;
17251;SDS011;8742;51.716;8.790;2023-03-01T12:46:06;7.80;;;4.77;;
17251;SDS011;8742;51.716;8.790;2023-03-01T12:48:41;8.00;;;4.73;;
17251;SDS011;8742;51.716;8.790;2023-03-01T12:51:14;6.67;;;4.50;;
17251;SDS011;8742;51.716;8.790;2023-03-01T12:53:46;6.00;;;4.60;;
17251;SDS011;8742;51.716;8.790;2023-03-01T12:56:17;6.47;;;4.57;;
17251;SDS011;8742;51.716;8.790;2023-03-01T12:58:51;7.07;;;4.23;;
17251;SDS011;8742;51.716;8.790;2023-03-01T13:01:28;5.73;;;4.27;;
17251;SDS011;8742;51.716;8.790;2023-03-01T13:04:21;6.70;;;4.67;;
17251;SDS011;8742;51.716;8.790;2023-03-01T13:09:44;7.80;;;4.70;;
17251;SDS011;8742;51.716;8.790;2023-03-01T13:15:27;8.80;;;4.33;;
17251;SDS011;8742;51.716;8.790;2023-03-01T13:17:59;15.57;;;4.13;;
17251;SDS011;8742;51.716;8.790;2023-03-01T13:20:29;6.70;;;4.23;;
17251;SDS011;8742;51.716;8.790;2023-03-01T13:23:03;6.73;;;4.77;;
17251;SDS011;8742;51.716;8.790;2023-03-01T13:25:33;6.17;;;4.47;;
17251;SDS011;8742;51.716;8.790;2023-03-01T13:31:06;7.40;;;4.87;;
17251;SDS011;8742;51.716;8.790;2023-03-01T13:33:39;11.47;;;4.60;;
17251;SDS011;8742;51.716;8.790;2023-03-01T13:36:08;7.47;;;5.10;;
17251;SDS011;8742;51.716;8.790;2023-03-01T13:38:41;6.50;;;4.43;;
17251;SDS011;8742;51.716;8.790;2023-03-01T13:41:11;6.47;;;4.37;;
17251;SDS011;8742;51.716;8.790;2023-03-01T13:43:40;5.40;;;4.67;;
17251;SDS011;8742;51.716;8.790;2023-03-01T13:46:09;5.23;;;4.03;;
17251;SDS011;8742;51.716;8.790;2023-03-01T13:48:42;5.67;;;4.23;;
17251;SDS011;8742;51.716;8.790;2023-03-01T13:51:11;6.43;;;4.27;;
17251;SDS011;8742;51.716;8.790;2023-03-01T13:53:39;7.37;;;4.60;;
17251;SDS011;8742;51.716;8.790;2023-03-01T13:56:09;10.13;;;5.50;;
17251;SDS011;8742;51.716;8.790;2023-03-01T13:58:47;8.68;;;4.30;;
17251;SDS011;8742;51.716;8.790;2023-03-01T14:01:27;9.93;;;4.57;;
17251;SDS011;8742;51.716;8.790;2023-03-01T14:03:55;6.13;;;4.50;;
17251;SDS011;8742;51.716;8.790;2023-03-01T14:06:22;9.10;;;4.60;;
17251;SDS011;8742;51.716;8.790;2023-03-01T14:08:59;7.83;;;4.77;;
17251;SDS011;8742;51.716;8.790;2023-03-01T14:14:27;7.63;;;4.63;;
17251;SDS011;8742;51.716;8.790;2023-03-01T14:17:10;6.27;;;4.57;;
17251;SDS011;8742;51.716;8.790;2023-03-01T14:19:54;9.63;;;4.90;;
17251;SDS011;8742;51.716;8.790;2023-03-01T14:22:23;7.27;;;4.80;;
17251;SDS011;8742;51.716;8.790;2023-03-01T14:24:55;10.17;;;4.60;;
17251;SDS011;8742;51.716;8.790;2023-03-01T14:27:23;6.20;;;4.20;;
17251;SDS011;8742;51.716;8.790;2023-03-01T14:29:57;7.80;;;4.97;;
17251;SDS011;8742;51.716;8.790;2023-03-01T14:32:26;7.97;;;4.60;;
17251;SDS011;8742;51.716;8.790;2023-03-01T14:34:55;6.20;;;5.03;;
17251;SDS011;8742;51.716;8.790;2023-03-01T14:37:24;7.13;;;4.80;;
17251;SDS011;8742;51.716;8.790;2023-03-01T14:39:52;8.23;;;4.63;;
17251;SDS011;8742;51.716;8.790;2023-03-01T14:42:20;11.07;;;5.47;;
17251;SDS011;8742;51.716;8.790;2023-03-01T14:44:50;9.95;;;5.35;;
17251;SDS011;8742;51.716;8.790;2023-03-01T14:47:23;6.50;;;4.70;;
17251;SDS011;8742;51.716;8.790;2023-03-01T14:49:56;7.40;;;4.80;;
17251;SDS011;8742;51.716;8.790;2023-03-01T14:52:27;10.87;;;5.37;;
17251;SDS011;8742;51.716;8.790;2023-03-01T14:54:59;5.37;;;4.43;;
17251;SDS011;8742;51.716;8.790;2023-03-01T14:57:28;5.87;;;4.60;;
17251;SDS011;8742;51.716;8.790;2023-03-01T14:59:57;6.57;;;4.57;;
17251;SDS011;8742;51.716;8.790;2023-03-01T15:02:30;6.63;;;4.90;;
17251;SDS011;8742;51.716;8.790;2023-03-01T15:04:59;14.67;;;5.73;;
17251;SDS011;8742;51.716;8.790;2023-03-01T15:07:29;6.23;;;4.77;;
17251;SDS011;8742;51.716;8.790;2023-03-01T15:09:58;7.13;;;4.90;;
17251;SDS011;8742;51.716;8.790;2023-03-01T15:12:33;6.53;;;4.80;;
17251;SDS011;8742;51.716;8.790;2023-03-01T15:15:06;8.77;;;4.90;;
17251;SDS011;8742;51.716;8.790;2023-03-01T15:17:50;6.30;;;4.43;;
17251;SDS011;8742;51.716;8.790;2023-03-01T15:20:22;5.07;;;4.43;;
17251;SDS011;8742;51.716;8.790;2023-03-01T15:22:52;8.10;;;5.17;;
17251;SDS011;8742;51.716;8.790;2023-03-01T15:25:20;7.53;;;5.17;;
17251;SDS011;8742;51.716;8.790;2023-03-01T15:27:50;10.30;;;5.23;;
17251;SDS011;8742;51.716;8.790;2023-03-01T15:30:18;6.27;;;4.97;;
17251;SDS011;8742;51.716;8.790;2023-03-01T15:33:15;8.13;;;4.60;;
17251;SDS011;8742;51.716;8.790;2023-03-01T15:35:45;7.83;;;4.87;;